Time;durP1;ratioP1;P1;durP2;ratioP2;P2;SDS_P1;SDS_P2;PMS_P1;PMS_P2;Temp;Humidity;BMP_temperature;BMP_pressure;BME280_temperature;BME280_humidity;BME280_pressure;Samples;Min_cycle;Max_cycle;Signal;HPM_P1;HPM_P2
2022/05/02 00:00:57;;;;;;;10.80;9.07;;;;;;;;;;5007660;28;20093;-76
2022/05/02 00:03:26;;;;;;;10.88;9.88;;;;;;;;;;5007041;28;20050;-74
2022/05/02 00:05:56;;;;;;;11.45;10.27;;;;;;;;;;5013285;28;20136;-74
2022/05/02 00:08:24;;;;;;;10.68;9.38;;;;;;;;;;4994141;28;20088;-75
2022/05/02 00:10:53;;;;;;;12.43;11.23;;;;;;;;;;4993978;28;20061;-73
2022/05/02 00:13:21;;;;;;;11.52;10.52;;;;;;;;;;4994673;28;20132;-74
2022/05/02 00:15:48;;;;;;;11.05;9.60;;;;;;;;;;4993580;28;20504;-73
2022/05/02 00:18:16;;;;;;;11.50;10.50;;;;;;;;;;4994046;28;20061;-74
2022/05/02 00:20:45;;;;;;;13.30;11.45;;;;;;;;;;4993742;28;20043;-74
2022/05/02 00:23:13;;;;;;;13.48;11.50;;;;;;;;;;4997606;28;20077;-74
2022/05/02 00:25:42;;;;;;;12.98;11.73;;;;;;;;;;5012067;28;20061;-73
2022/05/02 00:28:14;;;;;;;12.48;11.07;;;;;;;;;;5012141;28;20053;-74
2022/05/02 00:30:43;;;;;;;13.10;11.55;;;;;;;;;;5080585;28;20099;-74
2022/05/02 00:33:12;;;;;;;11.55;10.48;;;;;;;;;;5012838;28;20121;-74
2022/05/02 00:35:39;;;;;;;9.68;8.77;;;;;;;;;;5003682;28;20051;-74
2022/05/02 00:38:08;;;;;;;11.60;10.57;;;;;;;;;;4993541;28;20049;-74
2022/05/02 00:40:36;;;;;;;11.80;10.23;;;;;;;;;;4994378;28;20425;-74
2022/05/02 00:43:05;;;;;;;11.55;10.48;;;;;;;;;;4993754;28;20050;-74
2022/05/02 00:45:37;;;;;;;11.13;10.07;;;;;;;;;;4994022;28;20086;-74
2022/05/02 00:48:09;;;;;;;11.93;10.77;;;;;;;;;;4993835;28;20053;-74
2022/05/02 00:50:41;;;;;;;11.95;10.85;;;;;;;;;;4993997;28;20047;-74
2022/05/02 00:53:13;;;;;;;11.45;10.45;;;;;;;;;;4993448;28;20042;-74
2022/05/02 00:55:42;;;;;;;11.80;10.40;;;;;;;;;;4993996;28;20058;-74
2022/05/02 00:58:11;;;;;;;11.75;10.65;;;;;;;;;;4993731;28;20466;-73
2022/05/02 01:00:40;;;;;;;14.13;11.48;;;;;;;;;;5059721;28;20057;-73
2022/05/02 01:03:12;;;;;;;11.55;10.27;;;;;;;;;;5006194;28;20137;-74
2022/05/02 01:08:35;;;;;;;10.93;9.48;;;;;;;;;;5012607;28;20077;-74
2022/05/02 01:11:04;;;;;;;11.45;9.40;;;;;;;;;;5011770;28;20523;-76
2022/05/02 01:13:34;;;;;;;10.45;9.45;;;;;;;;;;5008192;28;20053;-74
2022/05/02 01:16:39;;;;;;;9.73;8.93;;;;;;;;;;4992866;28;20074;-74
2022/05/02 01:19:07;;;;;;;10.80;9.75;;;;;;;;;;4992682;28;20062;-76
2022/05/02 01:21:35;;;;;;;10.80;9.13;;;;;;;;;;5002856;28;20505;-76
2022/05/02 01:24:04;;;;;;;11.57;9.48;;;;;;;;;;5011856;28;20042;-76
2022/05/02 01:26:33;;;;;;;10.27;9.25;;;;;;;;;;5011079;28;20107;-74
2022/05/02 01:29:03;;;;;;;11.00;10.00;;;;;;;;;;5011383;28;20077;-75
2022/05/02 01:31:32;;;;;;;13.07;11.25;;;;;;;;;;5011801;28;20045;-75
2022/05/02 01:34:01;;;;;;;13.30;11.93;;;;;;;;;;5011665;28;20078;-75
2022/05/02 01:36:30;;;;;;;14.18;12.77;;;;;;;;;;5011672;28;20049;-75
2022/05/02 01:38:59;;;;;;;13.93;12.52;;;;;;;;;;5011276;28;20053;-75
2022/05/02 01:41:28;;;;;;;13.30;11.82;;;;;;;;;;5078472;28;20053;-75
2022/05/02 01:43:59;;;;;;;13.50;12.20;;;;;;;;;;5011007;28;20054;-75
2022/05/02 01:46:27;;;;;;;13.27;11.82;;;;;;;;;;5011435;28;20054;-75
2022/05/02 01:48:56;;;;;;;12.88;11.63;;;;;;;;;;5011619;28;20561;-75
2022/05/02 01:51:24;;;;;;;13.23;12.02;;;;;;;;;;5078906;28;20048;-75
2022/05/02 01:53:53;;;;;;;12.80;11.55;;;;;;;;;;5011964;28;20053;-77
2022/05/02 01:56:21;;;;;;;12.70;11.25;;;;;;;;;;4998723;28;20050;-76
2022/05/02 01:58:50;;;;;;;16.20;10.80;;;;;;;;;;4992848;28;20111;-76
2022/05/02 02:01:18;;;;;;;13.70;11.43;;;;;;;;;;5004993;28;20046;-76
2022/05/02 02:03:47;;;;;;;12.02;10.82;;;;;;;;;;5005509;28;20050;-77
2022/05/02 02:06:16;;;;;;;13.00;11.65;;;;;;;;;;5011176;28;20053;-77
2022/05/02 02:08:45;;;;;;;12.55;11.38;;;;;;;;;;5011705;28;20045;-75
2022/05/02 02:11:12;;;;;;;11.38;9.75;;;;;;;;;;5011031;28;20072;-75
2022/05/02 02:13:41;;;;;;;11.40;9.68;;;;;;;;;;5011337;28;20054;-75
2022/05/02 02:16:13;;;;;;;13.30;10.75;;;;;;;;;;5011318;28;20172;-75
2022/05/02 02:18:42;;;;;;;11.25;10.15;;;;;;;;;;5010690;28;20057;-74
2022/05/02 02:21:10;;;;;;;12.45;9.10;;;;;;;;;;5011140;28;20045;-74
2022/05/02 02:23:39;;;;;;;10.15;9.15;;;;;;;;;;5009807;28;20206;-75
2022/05/02 02:26:08;;;;;;;10.23;9.25;;;;;;;;;;5009568;28;20042;-76
2022/05/02 02:28:36;;;;;;;12.75;9.70;;;;;;;;;;4992023;28;20126;-76
2022/05/02 02:31:04;;;;;;;11.27;9.88;;;;;;;;;;5058309;28;20052;-77
2022/05/02 02:33:33;;;;;;;11.05;9.90;;;;;;;;;;5001256;28;20054;-77
2022/05/02 02:36:02;;;;;;;11.60;10.57;;;;;;;;;;5010501;28;20097;-76
2022/05/02 02:38:31;;;;;;;13.20;11.80;;;;;;;;;;5002292;28;20465;-77
2022/05/02 02:40:59;;;;;;;12.32;11.05;;;;;;;;;;4991869;28;20054;-77
2022/05/02 02:43:27;;;;;;;12.48;11.02;;;;;;;;;;4992622;28;20050;-75
2022/05/02 02:45:55;;;;;;;11.35;10.00;;;;;;;;;;4991800;28;20051;-75
2022/05/02 02:48:23;;;;;;;11.90;10.70;;;;;;;;;;4992659;28;20481;-76
2022/05/02 02:50:52;;;;;;;12.57;10.77;;;;;;;;;;4991047;28;20084;-76
2022/05/02 02:53:20;;;;;;;11.07;9.85;;;;;;;;;;4992190;28;20062;-75
2022/05/02 02:55:48;;;;;;;12.13;11.00;;;;;;;;;;4992069;28;20113;-76
2022/05/02 02:58:16;;;;;;;13.15;11.32;;;;;;;;;;4991571;28;20084;-75
2022/05/02 03:00:46;;;;;;;12.73;11.52;;;;;;;;;;4992576;28;20047;-82
2022/05/02 03:03:15;;;;;;;11.15;9.93;;;;;;;;;;4991863;28;20047;-82
2022/05/02 03:06:02;;;;;;;12.75;11.45;;;;;;;;;;4992195;28;20129;-83
2022/05/02 03:08:34;;;;;;;12.95;11.73;;;;;;;;;;4998837;28;20058;-79
2022/05/02 03:11:03;;;;;;;11.73;10.63;;;;;;;;;;5010898;28;20066;-79
2022/05/02 03:13:34;;;;;;;10.90;9.80;;;;;;;;;;5010455;28;20469;-77
2022/05/02 03:16:03;;;;;;;10.50;9.50;;;;;;;;;;5010437;28;20409;-78
2022/05/02 03:18:31;;;;;;;10.30;9.30;;;;;;;;;;5010673;28;20085;-78
2022/05/02 03:21:00;;;;;;;10.05;9.15;;;;;;;;;;5010474;28;20065;-78
2022/05/02 03:23:28;;;;;;;14.60;9.43;;;;;;;;;;5010498;28;20111;-81
2022/05/02 03:25:57;;;;;;;10.23;9.23;;;;;;;;;;5010070;28;20078;-80
2022/05/02 03:28:28;;;;;;;13.35;8.27;;;;;;;;;;5010618;28;20050;-79
2022/05/02 03:30:56;;;;;;;10.02;9.07;;;;;;;;;;5010041;28;20050;-80
2022/05/02 03:33:25;;;;;;;9.98;8.98;;;;;;;;;;5010384;28;20070;-80
2022/05/02 03:35:53;;;;;;;10.70;9.68;;;;;;;;;;5010331;28;20049;-80
2022/05/02 03:38:21;;;;;;;11.60;9.30;;;;;;;;;;5010129;28;20068;-77
2022/05/02 03:40:49;;;;;;;11.65;10.43;;;;;;;;;;5010031;28;20057;-77
2022/05/02 03:43:17;;;;;;;10.88;9.82;;;;;;;;;;5010172;28;20046;-78
2022/05/02 03:45:45;;;;;;;11.00;9.90;;;;;;;;;;5010310;28;20060;-78
2022/05/02 03:48:13;;;;;;;11.88;9.45;;;;;;;;;;5009631;28;20042;-77
2022/05/02 03:50:42;;;;;;;10.77;9.75;;;;;;;;;;5010179;28;20404;-77
2022/05/02 03:53:15;;;;;;;10.80;9.27;;;;;;;;;;5009727;28;20046;-78
2022/05/02 03:55:44;;;;;;;11.57;10.48;;;;;;;;;;5010179;28;20057;-78
2022/05/02 03:58:13;;;;;;;12.45;10.10;;;;;;;;;;5009446;28;20060;-77
2022/05/02 04:00:41;;;;;;;10.88;9.38;;;;;;;;;;5009889;28;20057;-77
2022/05/02 04:03:09;;;;;;;11.23;10.05;;;;;;;;;;5011040;28;20085;-77
2022/05/02 04:05:39;;;;;;;12.82;9.88;;;;;;;;;;5013446;28;20077;-76
2022/05/02 04:08:08;;;;;;;13.18;9.88;;;;;;;;;;5013471;28;20054;-76
2022/05/02 04:10:36;;;;;;;10.98;9.88;;;;;;;;;;5013037;28;20054;-77
2022/05/02 04:13:03;;;;;;;11.88;10.07;;;;;;;;;;5013201;28;20377;-77
2022/05/02 04:15:32;;;;;;;11.60;10.40;;;;;;;;;;5013214;28;20053;-77
2022/05/02 04:18:00;;;;;;;12.05;10.15;;;;;;;;;;5000578;28;20050;-77
2022/05/02 04:20:29;;;;;;;10.88;9.68;;;;;;;;;;5006575;28;20073;-76
2022/05/02 04:22:57;;;;;;;12.38;10.10;;;;;;;;;;5007215;28;20042;-76
2022/05/02 04:25:26;;;;;;;11.57;10.43;;;;;;;;;;5007083;28;20087;-77
2022/05/02 04:27:54;;;;;;;12.10;10.95;;;;;;;;;;5012690;28;20061;-77
2022/05/02 04:30:23;;;;;;;11.43;10.30;;;;;;;;;;5012924;28;20133;-77
2022/05/02 04:32:51;;;;;;;12.88;11.18;;;;;;;;;;5012404;28;20073;-78
2022/05/02 04:35:20;;;;;;;11.60;10.05;;;;;;;;;;5013135;28;20054;-77
2022/05/02 04:37:48;;;;;;;11.77;10.60;;;;;;;;;;4999514;28;20103;-77
2022/05/02 04:40:17;;;;;;;12.43;10.52;;;;;;;;;;4994405;28;20051;-77
2022/05/02 04:42:46;;;;;;;11.25;10.15;;;;;;;;;;4993541;28;20115;-76
2022/05/02 04:45:14;;;;;;;12.30;11.07;;;;;;;;;;4994166;28;20069;-76
2022/05/02 04:47:41;;;;;;;10.57;9.57;;;;;;;;;;5008246;28;20064;-77
2022/05/02 04:50:11;;;;;;;13.10;10.40;;;;;;;;;;5012475;28;20062;-77
2022/05/02 04:52:38;;;;;;;12.52;10.25;;;;;;;;;;5012256;28;20054;-71
2022/05/02 04:55:09;;;;;;;19.95;11.95;;;;;;;;;;5011979;28;20042;-71
2022/05/02 04:57:37;;;;;;;12.90;10.70;;;;;;;;;;5012241;28;20065;-71
2022/05/02 05:00:05;;;;;;;12.20;11.05;;;;;;;;;;5012458;28;20535;-86
2022/05/02 05:02:33;;;;;;;14.40;11.10;;;;;;;;;;5012957;28;20050;-83
2022/05/02 05:05:02;;;;;;;12.60;11.32;;;;;;;;;;5078499;28;20136;-79
2022/05/02 05:07:31;;;;;;;11.85;10.45;;;;;;;;;;5012364;28;20050;-79
2022/05/02 05:09:59;;;;;;;12.82;11.23;;;;;;;;;;5012213;28;20527;-82
2022/05/02 05:12:45;;;;;;;11.63;10.07;;;;;;;;;;5012345;28;20057;-79
2022/05/02 05:18:10;;;;;;;12.60;10.32;;;;;;;;;;5014592;28;20106;-80
2022/05/02 05:21:05;;;;;;;13.43;11.05;;;;;;;;;;5017330;28;20050;-78
2022/05/02 05:24:17;;;;;;;13.33;11.00;;;;;;;;;;5014368;28;20050;-79
2022/05/02 05:27:02;;;;;;;13.25;10.32;;;;;;;;;;5021461;28;20296;-76
2022/05/02 05:29:58;;;;;;;15.75;12.80;;;;;;;;;;5015988;28;20120;-82
2022/05/02 05:32:55;;;;;;;12.68;11.35;;;;;;;;;;5012372;28;20046;-83
2022/05/02 05:35:25;;;;;;;13.88;12.40;;;;;;;;;;5016480;28;20053;-83
2022/05/02 05:38:03;;;;;;;14.15;12.18;;;;;;;;;;5011044;28;20049;-84
2022/05/02 05:40:38;;;;;;;15.80;11.90;;;;;;;;;;5081658;28;20060;-82
2022/05/02 05:43:34;;;;;;;13.60;11.93;;;;;;;;;;5011134;28;20053;-79
2022/05/02 05:46:23;;;;;;;14.30;12.90;;;;;;;;;;5013757;28;20084;-85
2022/05/02 05:49:43;;;;;;;19.52;14.60;;;;;;;;;;5012582;28;20061;-86
2022/05/02 05:52:36;;;;;;;15.88;14.38;;;;;;;;;;5012315;28;20529;-82
2022/05/02 05:55:07;;;;;;;16.00;13.48;;;;;;;;;;5009033;28;20516;-86
2022/05/02 05:58:03;;;;;;;22.13;13.30;;;;;;;;;;5014811;28;20054;-77
2022/05/02 06:00:34;;;;;;;20.92;16.02;;;;;;;;;;5015393;28;20057;-76
2022/05/02 06:03:08;;;;;;;16.65;14.95;;;;;;;;;;5083095;28;20079;-76
2022/05/02 06:05:40;;;;;;;16.70;14.25;;;;;;;;;;5017640;28;20071;-69
2022/05/02 06:08:29;;;;;;;18.17;16.20;;;;;;;;;;5010199;28;20484;-74
2022/05/02 06:11:00;;;;;;;19.10;15.73;;;;;;;;;;5009614;28;20061;-75
2022/05/02 06:13:31;;;;;;;18.30;16.27;;;;;;;;;;5074083;28;20061;-75
2022/05/02 06:19:32;;;;;;;22.20;17.83;;;;;;;;;;5065282;28;20080;-74
2022/05/02 06:22:03;;;;;;;19.58;17.60;;;;;;;;;;5071872;28;20049;-74
2022/05/02 06:24:33;;;;;;;19.35;17.35;;;;;;;;;;5010496;28;20062;-74
2022/05/02 06:27:02;;;;;;;21.80;19.45;;;;;;;;;;5010091;28;20085;-78
2022/05/02 06:29:34;;;;;;;24.73;20.30;;;;;;;;;;4999734;28;20058;-77
2022/05/02 06:32:09;;;;;;;27.15;22.77;;;;;;;;;;5063731;28;20080;-77
2022/05/02 06:34:39;;;;;;;23.95;21.42;;;;;;;;;;5023228;28;20080;-79
2022/05/02 06:37:31;;;;;;;22.27;20.02;;;;;;;;;;5010956;28;20052;-76
2022/05/02 06:40:15;;;;;;;25.50;19.45;;;;;;;;;;5010396;28;20056;-76
2022/05/02 06:43:08;;;;;;;27.92;19.52;;;;;;;;;;5010985;28;20054;-77
2022/05/02 06:45:44;;;;;;;25.60;21.15;;;;;;;;;;5005616;28;20054;-78
2022/05/02 06:48:29;;;;;;;23.23;20.52;;;;;;;;;;5009428;28;20049;-77
2022/05/02 06:51:29;;;;;;;25.17;21.23;;;;;;;;;;5010054;28;20034;-77
2022/05/02 06:54:26;;;;;;;28.48;19.60;;;;;;;;;;4942988;28;20065;-77
2022/05/02 06:57:05;;;;;;;24.10;21.20;;;;;;;;;;4997867;28;20103;-77
2022/05/02 06:59:54;;;;;;;26.60;20.38;;;;;;;;;;5073867;28;20144;-79
2022/05/02 07:02:39;;;;;;;37.95;30.98;;;;;;;;;;5010039;28;20408;-75
2022/05/02 07:05:47;;;;;;;41.17;34.63;;;;;;;;;;5010649;28;20058;-78
2022/05/02 07:08:22;;;;;;;50.80;42.40;;;;;;;;;;5009946;28;20099;-79
2022/05/02 07:10:54;;;;;;;56.92;44.92;;;;;;;;;;5076812;28;20293;-78
2022/05/02 07:13:36;;;;;;;55.35;45.63;;;;;;;;;;5009069;28;20144;-77
2022/05/02 07:16:22;;;;;;;70.43;52.80;;;;;;;;;;5010139;28;20030;-78
2022/05/02 07:19:26;;;;;;;76.85;53.67;;;;;;;;;;5007576;28;20061;-78
2022/05/02 07:22:06;;;;;;;39.60;33.42;;;;;;;;;;5073546;28;20519;-78
2022/05/02 07:24:53;;;;;;;42.38;27.40;;;;;;;;;;5075094;28;20050;-80
2022/05/02 07:27:26;;;;;;;30.17;26.98;;;;;;;;;;5008107;28;20586;-79
2022/05/02 07:29:58;;;;;;;30.98;25.80;;;;;;;;;;5007303;28;20426;-78
2022/05/02 07:32:27;;;;;;;38.17;26.50;;;;;;;;;;5008578;28;20046;-78
2022/05/02 07:34:56;;;;;;;32.08;27.83;;;;;;;;;;5006325;28;20054;-78
2022/05/02 07:37:25;;;;;;;30.33;26.55;;;;;;;;;;5009767;28;20046;-77
2022/05/02 07:39:53;;;;;;;28.15;25.05;;;;;;;;;;5011903;28;20083;-77
2022/05/02 07:42:23;;;;;;;31.75;24.08;;;;;;;;;;5011787;28;20145;-77
2022/05/02 07:44:56;;;;;;;26.70;21.98;;;;;;;;;;5092712;28;20064;-77
2022/05/02 07:47:25;;;;;;;34.90;23.85;;;;;;;;;;5095054;28;20044;-77
2022/05/02 07:49:57;;;;;;;30.25;22.42;;;;;;;;;;5093965;28;20414;-78
2022/05/02 07:52:25;;;;;;;23.30;20.83;;;;;;;;;;5095932;28;20056;-80
2022/05/02 07:54:56;;;;;;;22.35;19.98;;;;;;;;;;5096892;28;20082;-78
2022/05/02 07:57:25;;;;;;;16.00;11.20;;;;;;;;;;5090134;28;20060;-77
2022/05/02 07:59:56;;;;;;;10.07;8.60;;;;;;;;;;5088874;28;20048;-76
2022/05/02 08:02:23;;;;;;;12.18;10.63;;;;;;;;;;5090394;28;20048;-78
2022/05/02 08:04:55;;;;;;;10.40;9.35;;;;;;;;;;5095864;28;20055;-79
2022/05/02 08:07:35;;;;;;;10.63;9.50;;;;;;;;;;5096765;28;20048;-78
2022/05/02 08:10:55;;;;;;;10.13;9.20;;;;;;;;;;5096273;28;20139;-77
2022/05/02 08:13:34;;;;;;;11.52;10.32;;;;;;;;;;5033720;28;20439;-78
2022/05/02 08:16:14;;;;;;;11.70;10.60;;;;;;;;;;5044717;28;20098;-78
2022/05/02 08:18:59;;;;;;;12.65;11.35;;;;;;;;;;5082464;28;20419;-78
2022/05/02 08:21:28;;;;;;;11.85;9.60;;;;;;;;;;5091465;28;20055;-78
2022/05/02 08:27:19;;;;;;;9.48;8.57;;;;;;;;;;5097038;28;20579;-75
2022/05/02 08:30:09;;;;;;;9.60;8.70;;;;;;;;;;5093456;28;20386;-75
2022/05/02 08:33:01;;;;;;;9.57;8.57;;;;;;;;;;5096581;28;20052;-75
2022/05/02 08:36:08;;;;;;;10.10;9.10;;;;;;;;;;5093267;28;20132;-73
2022/05/02 08:39:16;;;;;;;10.88;7.82;;;;;;;;;;5010046;28;20050;-75
2022/05/02 08:42:18;;;;;;;8.52;7.70;;;;;;;;;;5010030;28;20052;-74
2022/05/02 08:45:10;;;;;;;9.43;8.43;;;;;;;;;;5074059;28;20125;-73
2022/05/02 08:47:52;;;;;;;10.00;8.55;;;;;;;;;;5077214;28;20065;-74
2022/05/02 08:50:46;;;;;;;9.15;8.32;;;;;;;;;;5015028;28;20050;-74
2022/05/02 08:53:34;;;;;;;10.90;8.98;;;;;;;;;;5013743;28;20102;-74
2022/05/02 08:56:19;;;;;;;11.18;9.98;;;;;;;;;;5010174;28;20052;-74
2022/05/02 08:59:09;;;;;;;8.65;7.60;;;;;;;;;;5012069;28;20054;-75
2022/05/02 09:01:46;;;;;;;12.48;8.73;;;;;;;;;;5012221;28;20507;-75
2022/05/02 09:04:33;;;;;;;10.55;8.93;;;;;;;;;;5011984;28;20075;-75
2022/05/02 09:07:35;;;;;;;14.13;6.85;;;;;;;;;;5011614;28;20045;-75
2022/05/02 09:10:09;;;;;;;7.05;6.38;;;;;;;;;;5000672;28;20042;-75
2022/05/02 09:13:01;;;;;;;8.02;7.22;;;;;;;;;;5060578;28;20134;-75
2022/05/02 09:15:57;;;;;;;8.70;7.30;;;;;;;;;;5008201;28;20046;-75
2022/05/02 09:18:37;;;;;;;7.93;7.15;;;;;;;;;;5010500;28;20330;-74
2022/05/02 09:21:25;;;;;;;8.77;7.05;;;;;;;;;;5009550;28;20114;-75
2022/05/02 09:24:19;;;;;;;7.18;6.47;;;;;;;;;;5021517;28;20058;-76
2022/05/02 09:27:01;;;;;;;6.25;5.75;;;;;;;;;;5024897;28;20057;-73
2022/05/02 09:29:55;;;;;;;7.05;6.25;;;;;;;;;;5011446;28;20488;-75
2022/05/02 09:32:46;;;;;;;9.40;6.50;;;;;;;;;;5015680;28;20049;-73
2022/05/02 09:35:28;;;;;;;7.40;6.70;;;;;;;;;;5014593;28;20545;-76
2022/05/02 09:38:00;;;;;;;8.20;7.40;;;;;;;;;;5078393;28;20050;-75
2022/05/02 09:40:36;;;;;;;8.30;7.18;;;;;;;;;;5013590;28;20050;-75
2022/05/02 09:49:33;;;;;;;8.48;7.78;;;;;;;;;;5011372;28;20480;-75
2022/05/02 09:49:36;;;;;;;;;;;;;;;;;;5011883;28;20594;-74
2022/05/02 09:52:04;;;;;;;9.95;7.30;;;;;;;;;;5012807;28;19963;-74
2022/05/02 09:57:58;;;;;;;7.95;7.25;;;;;;;;;;5010385;28;20147;-78
2022/05/02 10:03:25;;;;;;;8.35;7.55;;;;;;;;;;5004626;28;20480;-76
2022/05/02 10:06:11;;;;;;;8.52;7.63;;;;;;;;;;5011494;28;20050;-76
2022/05/02 10:09:04;;;;;;;9.45;8.57;;;;;;;;;;5078319;28;20034;-76
2022/05/02 10:12:05;;;;;;;8.52;7.68;;;;;;;;;;5008403;28;20080;-75
2022/05/02 10:14:59;;;;;;;8.80;7.47;;;;;;;;;;5013072;28;20050;-76
2022/05/02 10:17:37;;;;;;;8.23;7.32;;;;;;;;;;5008365;28;20046;-76
2022/05/02 10:20:18;;;;;;;9.13;6.97;;;;;;;;;;5011000;28;20054;-76
2022/05/02 10:22:58;;;;;;;8.88;7.70;;;;;;;;;;5012472;28;20110;-75
2022/05/02 10:25:49;;;;;;;5.40;4.90;;;;;;;;;;5012490;28;20061;-76
2022/05/02 10:28:40;;;;;;;7.90;6.10;;;;;;;;;;5008197;28;20131;-76
2022/05/02 10:31:21;;;;;;;6.95;4.15;;;;;;;;;;5007819;28;20052;-76
2022/05/02 10:33:52;;;;;;;6.10;3.20;;;;;;;;;;5010457;28;20085;-76
2022/05/02 10:36:23;;;;;;;3.60;3.30;;;;;;;;;;5010803;28;20050;-75
2022/05/02 10:38:58;;;;;;;4.30;3.90;;;;;;;;;;5010287;28;20473;-75
2022/05/02 10:41:30;;;;;;;6.82;4.30;;;;;;;;;;5009610;28;20038;-75
2022/05/02 10:44:04;;;;;;;5.93;4.00;;;;;;;;;;5004159;28;20096;-76
2022/05/02 10:46:33;;;;;;;3.92;3.45;;;;;;;;;;5006290;28;20054;-75
2022/05/02 10:49:06;;;;;;;6.80;3.88;;;;;;;;;;5011218;28;20060;-76
2022/05/02 10:51:35;;;;;;;5.70;3.60;;;;;;;;;;5010197;28;20061;-75
2022/05/02 10:54:12;;;;;;;3.65;3.13;;;;;;;;;;5010882;28;20103;-76
2022/05/02 10:56:43;;;;;;;4.97;3.53;;;;;;;;;;5011573;28;20064;-74
2022/05/02 10:59:14;;;;;;;3.85;3.47;;;;;;;;;;5073070;28;20078;-76
2022/05/02 11:02:02;;;;;;;8.00;3.72;;;;;;;;;;5010204;28;20064;-75
2022/05/02 11:04:52;;;;;;;4.78;4.00;;;;;;;;;;5010442;28;20042;-76
2022/05/02 11:07:48;;;;;;;4.53;4.00;;;;;;;;;;5009397;28;20042;-76
2022/05/02 11:10:20;;;;;;;5.05;4.03;;;;;;;;;;5012416;28;20046;-75
2022/05/02 11:13:06;;;;;;;3.97;3.30;;;;;;;;;;5012681;28;20053;-75
2022/05/02 11:15:59;;;;;;;3.45;3.13;;;;;;;;;;5013443;28;20056;-76
2022/05/02 11:21:41;;;;;;;4.35;2.88;;;;;;;;;;5013312;28;20053;-75
2022/05/02 11:24:15;;;;;;;3.63;3.15;;;;;;;;;;5013444;28;20102;-75
2022/05/02 11:26:45;;;;;;;3.67;3.35;;;;;;;;;;5013760;28;20056;-74
2022/05/02 11:29:37;;;;;;;5.00;3.20;;;;;;;;;;5013070;28;20077;-75
2022/05/02 11:32:29;;;;;;;3.97;3.67;;;;;;;;;;5012093;28;20042;-74
2022/05/02 11:35:14;;;;;;;5.47;3.42;;;;;;;;;;5013004;28;20057;-75
2022/05/02 11:37:43;;;;;;;;;;;;;;;;;;5013771;28;20054;-75
2022/05/02 11:40:12;;;;;;;4.47;3.30;;;;;;;;;;5080629;28;20360;-75
2022/05/02 11:42:46;;;;;;;6.00;3.50;;;;;;;;;;5012888;28;20054;-75
2022/05/02 11:45:16;;;;;;;4.70;3.13;;;;;;;;;;5006864;28;20460;-75
2022/05/02 11:48:00;;;;;;;5.68;3.30;;;;;;;;;;5007247;28;20095;-75
2022/05/02 11:50:29;;;;;;;4.80;3.67;;;;;;;;;;5013429;28;20107;-75
2022/05/02 11:52:59;;;;;;;8.23;3.20;;;;;;;;;;5012558;28;20110;-75
2022/05/02 11:55:30;;;;;;;3.45;3.15;;;;;;;;;;5013238;28;20085;-75
2022/05/02 11:58:02;;;;;;;6.05;3.63;;;;;;;;;;5012336;28;20438;-75
2022/05/02 12:00:34;;;;;;;5.30;3.45;;;;;;;;;;5013041;28;20467;-75
2022/05/02 12:03:16;;;;;;;8.70;4.60;;;;;;;;;;5013309;28;20050;-75
2022/05/02 12:05:48;;;;;;;3.60;3.25;;;;;;;;;;5006209;28;20374;-73
2022/05/02 12:08:36;;;;;;;6.47;3.88;;;;;;;;;;4994316;28;20074;-76
2022/05/02 12:11:23;;;;;;;7.47;3.65;;;;;;;;;;4993522;28;20049;-75
2022/05/02 12:13:52;;;;;;;9.38;3.40;;;;;;;;;;5063209;28;20122;-76
2022/05/02 12:16:22;;;;;;;7.05;3.45;;;;;;;;;;5006725;28;20037;-74
2022/05/02 12:18:56;;;;;;;3.80;3.50;;;;;;;;;;5012668;28;20083;-75
2022/05/02 12:21:48;;;;;;;4.72;3.72;;;;;;;;;;4993653;28;20050;-75
2022/05/02 12:24:29;;;;;;;4.00;3.13;;;;;;;;;;5055795;28;20050;-75
2022/05/02 12:26:57;;;;;;;4.45;3.28;;;;;;;;;;5012004;28;20042;-75
2022/05/02 12:29:27;;;;;;;6.80;3.60;;;;;;;;;;5006580;28;20152;-76
2022/05/02 12:31:58;;;;;;;3.83;3.40;;;;;;;;;;5006850;28;20065;-75
2022/05/02 12:34:45;;;;;;;3.35;3.05;;;;;;;;;;5012272;28;20053;-75
2022/05/02 12:37:23;;;;;;;3.22;3.03;;;;;;;;;;5011664;28;20412;-78
2022/05/02 12:40:20;;;;;;;6.97;4.50;;;;;;;;;;5012263;28;20049;-75
2022/05/02 12:43:10;;;;;;;4.22;3.30;;;;;;;;;;5011937;28;20091;-75
2022/05/02 12:45:53;;;;;;;3.17;2.97;;;;;;;;;;4993712;28;20109;-75
2022/05/02 12:48:29;;;;;;;3.17;2.92;;;;;;;;;;5006497;28;20054;-75
2022/05/02 12:50:58;;;;;;;5.10;3.45;;;;;;;;;;5012570;28;20053;-75
2022/05/02 12:56:14;;;;;;;4.80;3.38;;;;;;;;;;5012356;28;20050;-75
2022/05/02 13:01:45;;;;;;;5.18;3.45;;;;;;;;;;5078997;28;20401;-75
2022/05/02 13:04:16;;;;;;;4.95;4.13;;;;;;;;;;5012437;28;20404;-75
2022/05/02 13:06:45;;;;;;;4.53;4.15;;;;;;;;;;5011617;28;20118;-74
2022/05/02 13:09:16;;;;;;;4.43;4.10;;;;;;;;;;5012071;28;20050;-75
2022/05/02 13:11:46;;;;;;;4.43;4.00;;;;;;;;;;5011777;28;20050;-74
2022/05/02 13:14:21;;;;;;;4.25;3.85;;;;;;;;;;5025998;28;20508;-74
2022/05/02 13:16:49;;;;;;;8.73;4.15;;;;;;;;;;5011783;28;20070;-74
2022/05/02 13:19:17;;;;;;;4.40;4.10;;;;;;;;;;5011836;28;20042;-74
2022/05/02 13:21:56;;;;;;;4.65;3.63;;;;;;;;;;5078964;28;20041;-74
2022/05/02 13:24:25;;;;;;;3.92;3.55;;;;;;;;;;5011703;28;20052;-74
2022/05/02 13:27:05;;;;;;;4.40;3.97;;;;;;;;;;5010851;28;20050;-74
2022/05/02 13:29:35;;;;;;;5.70;4.18;;;;;;;;;;5011352;28;20057;-75
2022/05/02 13:32:04;;;;;;;5.93;3.78;;;;;;;;;;5011874;28;20081;-75
2022/05/02 13:34:43;;;;;;;8.60;4.47;;;;;;;;;;5011051;28;20065;-74
2022/05/02 13:37:27;;;;;;;4.60;3.78;;;;;;;;;;5078176;28;20427;-74
2022/05/02 13:40:10;;;;;;;6.22;4.20;;;;;;;;;;5011070;28;20050;-74
2022/05/02 13:43:18;;;;;;;4.28;3.65;;;;;;;;;;5010162;28;20069;-79
2022/05/02 13:46:16;;;;;;;4.20;3.83;;;;;;;;;;5072649;28;20065;-75
2022/05/02 13:49:26;;;;;;;8.40;4.32;;;;;;;;;;5010058;28;20046;-74
2022/05/02 13:52:05;;;;;;;5.72;4.20;;;;;;;;;;5020059;28;20053;-75
2022/05/02 13:54:40;;;;;;;4.95;4.45;;;;;;;;;;5004862;28;20525;-75
2022/05/02 13:57:15;;;;;;;4.28;3.97;;;;;;;;;;5010947;28;20434;-74
2022/05/02 13:59:53;;;;;;;5.10;4.30;;;;;;;;;;5010336;28;20054;-75
2022/05/02 14:03:10;;;;;;;4.15;3.47;;;;;;;;;;5010879;28;20535;-75
2022/05/02 14:08:29;;;;;;;3.72;3.28;;;;;;;;;;5011001;28;20431;-74
2022/05/02 14:11:18;;;;;;;5.00;4.25;;;;;;;;;;5011334;28;20121;-75
2022/05/02 14:13:47;;;;;;;4.15;3.72;;;;;;;;;;4998294;28;20050;-75
2022/05/02 14:16:17;;;;;;;4.43;3.75;;;;;;;;;;4992597;28;20098;-75
2022/05/02 14:18:59;;;;;;;4.10;3.40;;;;;;;;;;4991940;28;20054;-74
2022/05/02 14:21:35;;;;;;;7.07;4.53;;;;;;;;;;4992287;28;20093;-75
2022/05/02 14:24:06;;;;;;;4.55;4.18;;;;;;;;;;5004610;28;20412;-75
2022/05/02 14:26:35;;;;;;;7.13;5.35;;;;;;;;;;5004863;28;20136;-75
2022/05/02 14:29:09;;;;;;;5.20;4.32;;;;;;;;;;5009989;28;20467;-75
2022/05/02 14:31:40;;;;;;;7.57;4.85;;;;;;;;;;4991977;28;20129;-75
2022/05/02 14:34:38;;;;;;;4.47;4.13;;;;;;;;;;4991946;28;20057;-73
2022/05/02 14:37:09;;;;;;;4.85;4.45;;;;;;;;;;4998426;28;20141;-73
2022/05/02 14:39:39;;;;;;;3.67;3.38;;;;;;;;;;5004743;28;20111;-74
2022/05/02 14:42:09;;;;;;;5.38;4.88;;;;;;;;;;5010214;28;20046;-74
2022/05/02 14:44:39;;;;;;;7.80;5.50;;;;;;;;;;5027225;28;20066;-73
2022/05/02 14:47:08;;;;;;;8.75;4.70;;;;;;;;;;5009455;28;20157;-73
2022/05/02 14:49:37;;;;;;;4.13;3.83;;;;;;;;;;5010609;28;20041;-73
2022/05/02 14:52:14;;;;;;;5.20;4.80;;;;;;;;;;5010221;28;20094;-73
2022/05/02 14:54:45;;;;;;;5.18;4.68;;;;;;;;;;5072407;28;20103;-74
2022/05/02 14:57:23;;;;;;;5.53;4.90;;;;;;;;;;5010293;28;20046;-74
2022/05/02 14:59:59;;;;;;;4.72;4.03;;;;;;;;;;5010461;28;20054;-74
2022/05/02 15:02:28;;;;;;;4.55;3.55;;;;;;;;;;5010086;28;20046;-73
2022/05/02 15:05:02;;;;;;;5.88;3.97;;;;;;;;;;5009620;28;20042;-74
2022/05/02 15:07:41;;;;;;;4.50;3.63;;;;;;;;;;5078408;28;20046;-74
2022/05/02 15:10:43;;;;;;;3.30;3.00;;;;;;;;;;4990887;28;20055;-74
2022/05/02 15:13:48;;;;;;;5.05;3.28;;;;;;;;;;5005269;28;20050;-74
2022/05/02 15:16:23;;;;;;;4.70;3.70;;;;;;;;;;4997473;28;20053;-74
2022/05/02 15:22:13;;;;;;;5.03;3.58;;;;;;;;;;5007897;28;20046;-72
2022/05/02 15:25:06;;;;;;;5.07;3.78;;;;;;;;;;4995710;28;20046;-75
2022/05/02 15:36:57;;;;;;;5.60;3.40;;;;;;;;;;4994085;28;20050;-76
2022/05/02 15:39:25;;;;;;;6.25;4.47;;;;;;;;;;5003974;28;20056;-75
2022/05/02 15:41:55;;;;;;;5.40;4.82;;;;;;;;;;5008546;28;20412;-74
2022/05/02 15:44:23;;;;;;;6.00;3.65;;;;;;;;;;5004974;28;20062;-73
2022/05/02 15:46:53;;;;;;;4.03;3.65;;;;;;;;;;4992295;28;20050;-75
2022/05/02 15:49:24;;;;;;;5.53;4.15;;;;;;;;;;4999831;28;20041;-76
2022/05/02 15:52:03;;;;;;;4.03;3.67;;;;;;;;;;5010031;28;20094;-75
2022/05/02 15:54:41;;;;;;;5.35;3.67;;;;;;;;;;5009076;28;20557;-77
2022/05/02 15:57:30;;;;;;;4.82;4.05;;;;;;;;;;5009584;28;20054;-75
2022/05/02 16:00:16;;;;;;;4.38;4.00;;;;;;;;;;5007676;28;20412;-73
2022/05/02 16:03:13;;;;;;;4.47;3.70;;;;;;;;;;5010349;28;20058;-68
2022/05/02 16:06:37;;;;;;;4.88;4.47;;;;;;;;;;5012467;28;20054;-74
2022/05/02 16:11:54;;;;;;;6.43;3.55;;;;;;;;;;5011616;28;20065;-76
2022/05/02 16:14:23;;;;;;;4.38;3.97;;;;;;;;;;5078344;28;20616;-76